createdAt,value
2023-05-04T00:00:34.274Z,99897.38
2023-05-04T00:03:02.004Z,99891.09
2023-05-04T00:05:29.182Z,99887.47
2023-05-04T00:07:56.481Z,99889.63
2023-05-04T00:10:23.647Z,99886.72
2023-05-04T00:12:50.858Z,99888.69
2023-05-04T00:15:18.788Z,99884.78
2023-05-04T00:17:46.014Z,99890.47
2023-05-04T00:20:13.375Z,99879.06
2023-05-04T00:22:41.097Z,99889.34
2023-05-04T00:25:08.740Z,99884.22
2023-05-04T00:27:35.854Z,99897.13
2023-05-04T00:30:03.510Z,99888.28
2023-05-04T00:32:32.243Z,99888.81
2023-05-04T00:34:59.720Z,99891.75
2023-05-04T00:37:27.234Z,99888.25
2023-05-04T00:39:54.608Z,99898.09
2023-05-04T00:42:22.126Z,99896.19
2023-05-04T00:44:49.735Z,99905.78
2023-05-04T00:47:19.790Z,99897.28
2023-05-04T00:49:47.307Z,99905.63
2023-05-04T00:52:14.635Z,99905.91
2023-05-04T00:54:43.623Z,99905.03
2023-05-04T00:57:11.013Z,99896.56
2023-05-04T00:59:39.081Z,99902.75
2023-05-04T01:02:06.376Z,99900.97
2023-05-04T01:04:33.723Z,99899.81
2023-05-04T01:07:08.481Z,99906.72
2023-05-04T01:09:51.773Z,99910.16
2023-05-04T01:12:25.580Z,99902.72
2023-05-04T01:14:53.699Z,99892.06
2023-05-04T01:17:22.628Z,99891.31
2023-05-04T01:19:50.909Z,99894.66
2023-05-04T01:22:18.399Z,99888.91
2023-05-04T01:24:45.503Z,99887.78
2023-05-04T01:27:44.944Z,99889.41
2023-05-04T01:30:17.268Z,99889.16
2023-05-04T01:32:45.036Z,99889.44
2023-05-04T01:35:13.625Z,99890.84
2023-05-04T01:37:40.984Z,99895.34
2023-05-04T01:40:09.144Z,99897.97
2023-05-04T01:42:36.247Z,99895.25
2023-05-04T01:45:05.329Z,99897.47
2023-05-04T01:47:32.449Z,99890.97
2023-05-04T01:49:59.824Z,99886.75
2023-05-04T01:52:26.979Z,99885.81
2023-05-04T01:54:54.297Z,99893.44
2023-05-04T01:57:21.966Z,99884.91
2023-05-04T01:59:48.994Z,99890.66
2023-05-04T02:02:16.613Z,99892.50
2023-05-04T02:04:43.665Z,99900.53
2023-05-04T02:07:10.860Z,99886.06
2023-05-04T02:09:38.378Z,99882.06
2023-05-04T02:12:05.519Z,99892.81
2023-05-04T02:14:33.036Z,99885.06
2023-05-04T02:17:00.060Z,99878.47
2023-05-04T02:19:27.642Z,99885.66
2023-05-04T02:21:55.388Z,99879.16
2023-05-04T02:24:22.671Z,99884.75
2023-05-04T02:26:50.046Z,99878.91
2023-05-04T02:29:17.433Z,99884.72
2023-05-04T02:31:45.235Z,99874.50
2023-05-04T02:34:14.130Z,99881.91
2023-05-04T02:36:47.145Z,99875.94
2023-05-04T02:39:14.451Z,99877.03
2023-05-04T02:41:42.083Z,99875.41
2023-05-04T02:44:09.376Z,99878.16
2023-05-04T02:46:36.750Z,99879.75
2023-05-04T02:49:04.029Z,99865.91
2023-05-04T02:51:31.461Z,99878.09
2023-05-04T02:53:58.887Z,99875.75
2023-05-04T02:56:26.563Z,99881.16
2023-05-04T02:58:54.102Z,99881.66
2023-05-04T03:01:21.592Z,99881.72
2023-05-04T03:03:49.396Z,99883.75
2023-05-04T03:06:16.526Z,99890.38
2023-05-04T03:08:43.569Z,99897.41
2023-05-04T03:11:11.038Z,99892.78
2023-05-04T03:13:38.407Z,99891.31
2023-05-04T03:16:05.758Z,99879.72
2023-05-04T03:21:18.257Z,99869.22
2023-05-04T03:23:45.851Z,99875.44
2023-05-04T03:26:13.472Z,99877.50
2023-05-04T03:28:40.683Z,99884.81
2023-05-04T03:31:08.478Z,99871.78
2023-05-04T03:33:36.143Z,99866.94
2023-05-04T03:36:03.522Z,99879.03
2023-05-04T03:38:31.564Z,99866.00
2023-05-04T03:40:59.851Z,99858.19
2023-05-04T03:43:27.009Z,99851.22
2023-05-04T03:45:57.106Z,99852.59
2023-05-04T03:48:24.514Z,99853.38
2023-05-04T03:50:51.721Z,99854.22
2023-05-04T03:53:19.810Z,99857.56
2023-05-04T03:55:47.057Z,99867.56
2023-05-04T03:58:14.782Z,99873.78
2023-05-04T04:00:42.456Z,99850.81
2023-05-04T04:03:14.864Z,99849.16
2023-05-04T04:05:42.666Z,99849.03
2023-05-04T04:08:10.571Z,99850.00
2023-05-04T04:10:37.546Z,99849.78
2023-05-04T04:13:04.927Z,99839.38
2023-05-04T04:15:32.301Z,99842.94
2023-05-04T04:18:00.049Z,99836.25
2023-05-04T04:20:27.360Z,99835.09
2023-05-04T04:22:54.665Z,99831.53
2023-05-04T04:25:22.291Z,99843.44
2023-05-04T04:27:49.694Z,99846.31
2023-05-04T04:30:17.106Z,99841.91
2023-05-04T04:32:45.842Z,99840.09
2023-05-04T04:35:14.029Z,99829.63
2023-05-04T04:37:41.412Z,99837.56
2023-05-04T04:40:10.249Z,99828.28
2023-05-04T04:42:37.325Z,99837.63
2023-05-04T04:45:05.619Z,99825.94
2023-05-04T04:47:33.108Z,99822.66
2023-05-04T04:50:00.774Z,99829.91
2023-05-04T04:52:28.190Z,99817.38
2023-05-04T04:54:56.547Z,99822.53
2023-05-04T04:57:23.879Z,99818.53
2023-05-04T04:59:51.204Z,99815.75
2023-05-04T05:02:18.492Z,99808.19
2023-05-04T05:04:46.244Z,99819.75
2023-05-04T05:07:13.403Z,99826.34
2023-05-04T05:09:40.713Z,99825.13
2023-05-04T05:12:07.938Z,99816.00
2023-05-04T05:14:35.058Z,99815.13
2023-05-04T05:17:04.955Z,99807.75
2023-05-04T05:19:36.831Z,99811.00
2023-05-04T05:22:04.668Z,99809.16
2023-05-04T05:24:32.262Z,99803.97
2023-05-04T05:27:00.020Z,99803.72
2023-05-04T05:29:27.340Z,99803.19
2023-05-04T05:31:54.632Z,99799.44
2023-05-04T05:34:21.663Z,99800.22
2023-05-04T05:36:49.227Z,99794.16
2023-05-04T05:39:16.421Z,99786.31
2023-05-04T05:41:43.402Z,99791.34
2023-05-04T05:44:12.924Z,99791.94
2023-05-04T05:46:40.695Z,99782.75
2023-05-04T05:49:07.922Z,99780.41
2023-05-04T05:51:35.597Z,99783.16
2023-05-04T05:54:03.054Z,99788.00
2023-05-04T05:56:30.122Z,99789.34
2023-05-04T05:58:57.534Z,99780.16
2023-05-04T06:01:26.310Z,99789.34
2023-05-04T06:03:53.576Z,99779.66
2023-05-04T06:06:21.154Z,99769.19
2023-05-04T06:08:48.648Z,99776.59
2023-05-04T06:11:16.342Z,99783.25
2023-05-04T06:13:43.307Z,99772.50
2023-05-04T06:16:10.898Z,99770.59
2023-05-04T06:18:37.904Z,99759.75
2023-05-04T06:21:05.185Z,99766.00
2023-05-04T06:23:32.224Z,99766.13
2023-05-04T06:25:59.657Z,99762.66
2023-05-04T06:28:27.318Z,99772.56
2023-05-04T06:30:54.428Z,99762.78
2023-05-04T06:33:21.776Z,99760.63
2023-05-04T06:35:49.166Z,99755.53
2023-05-04T06:38:16.804Z,99758.94
2023-05-04T06:40:43.966Z,99759.38
2023-05-04T06:43:11.303Z,99750.22
2023-05-04T06:45:39.106Z,99745.31
2023-05-04T06:48:07.508Z,99749.41
2023-05-04T06:50:35.906Z,99747.72
2023-05-04T06:53:04.272Z,99743.13
2023-05-04T06:55:31.884Z,99761.50
2023-05-04T06:57:58.916Z,99762.97
2023-05-04T07:00:26.794Z,99755.75
2023-05-04T07:02:54.169Z,99760.50
2023-05-04T07:05:22.019Z,99764.44
2023-05-04T07:07:51.264Z,99763.59
2023-05-04T07:10:19.229Z,99762.22
2023-05-04T07:12:46.653Z,99757.06
2023-05-04T07:15:14.300Z,99754.41
2023-05-04T07:17:41.579Z,99756.50
2023-05-04T07:20:09.013Z,99746.69
2023-05-04T07:22:36.272Z,99745.03
2023-05-04T07:25:04.165Z,99752.09
2023-05-04T07:27:31.310Z,99741.38
2023-05-04T07:29:58.782Z,99736.16
2023-05-04T07:32:26.176Z,99741.59
2023-05-04T07:34:53.814Z,99733.53
2023-05-04T07:37:21.132Z,99739.16
2023-05-04T07:39:48.182Z,99738.63
2023-05-04T07:42:15.656Z,99722.16
2023-05-04T07:44:43.646Z,99716.03
2023-05-04T07:47:10.701Z,99716.63
2023-05-04T07:49:38.024Z,99723.88
2023-05-04T07:52:05.783Z,99713.91
2023-05-04T07:54:32.891Z,99708.47
2023-05-04T07:57:05.035Z,99717.72
2023-05-04T07:59:32.456Z,99715.09
2023-05-04T08:01:59.908Z,99719.22
2023-05-04T08:04:27.394Z,99714.00
2023-05-04T08:06:54.473Z,99710.88
2023-05-04T08:09:21.599Z,99717.97
2023-05-04T08:11:49.192Z,99708.94
2023-05-04T08:14:16.506Z,99710.56
2023-05-04T08:16:43.658Z,99712.53
2023-05-04T08:19:12.111Z,99705.06
2023-05-04T08:21:40.392Z,99699.34
2023-05-04T08:24:07.723Z,99696.69
2023-05-04T08:26:37.293Z,99695.66
2023-05-04T08:29:07.992Z,99698.09
2023-05-04T08:31:36.021Z,99693.50
2023-05-04T08:34:03.988Z,99690.78
2023-05-04T08:36:31.761Z,99689.94
2023-05-04T08:38:58.869Z,99681.56
2023-05-04T08:41:26.343Z,99684.00
2023-05-04T08:43:53.776Z,99675.56
2023-05-04T08:46:21.339Z,99683.28
2023-05-04T08:48:48.715Z,99684.28
2023-05-04T08:51:16.382Z,99689.31
2023-05-04T08:53:45.715Z,99693.97
2023-05-04T08:56:13.810Z,99683.09
2023-05-04T08:58:52.979Z,99692.44
2023-05-04T09:01:20.501Z,99683.19
2023-05-04T09:03:47.752Z,99692.56
2023-05-04T09:06:15.223Z,99687.38
2023-05-04T09:08:42.970Z,99687.69
2023-05-04T09:11:10.471Z,99679.16
2023-05-04T09:13:38.314Z,99678.38
2023-05-04T09:16:06.105Z,99682.50
2023-05-04T09:18:40.128Z,99682.97
2023-05-04T09:21:07.996Z,99682.66
2023-05-04T09:23:48.715Z,99684.25
2023-05-04T09:26:26.784Z,99681.47
2023-05-04T09:28:55.085Z,99682.34
2023-05-04T09:31:23.133Z,99684.06
2023-05-04T09:33:53.290Z,99689.44
2023-05-04T09:36:21.574Z,99697.78
2023-05-04T09:38:49.353Z,99693.19
2023-05-04T09:41:16.784Z,99687.78
2023-05-04T09:43:44.490Z,99693.63
2023-05-04T09:46:18.570Z,99685.75
2023-05-04T09:48:53.417Z,99684.38
2023-05-04T09:51:22.530Z,99688.81
2023-05-04T09:53:50.514Z,99684.66
2023-05-04T09:56:20.372Z,99686.69
2023-05-04T09:58:47.690Z,99698.50
2023-05-04T10:01:14.786Z,99690.50
2023-05-04T10:03:42.855Z,99689.69
2023-05-04T10:06:10.641Z,99687.78
2023-05-04T10:08:38.523Z,99693.03
2023-05-04T10:11:06.065Z,99695.63
2023-05-04T10:13:33.433Z,99690.69
2023-05-04T10:16:38.293Z,99694.34
2023-05-04T10:19:23.171Z,99691.28
2023-05-04T10:21:55.608Z,99697.22
2023-05-04T10:24:26.728Z,99689.63
2023-05-04T10:27:09.733Z,99686.31
2023-05-04T10:29:37.191Z,99692.53
2023-05-04T10:32:05.003Z,99686.88
2023-05-04T10:34:32.993Z,99701.63
2023-05-04T10:37:00.940Z,99693.66
2023-05-04T10:39:30.567Z,99686.91
2023-05-04T10:42:03.346Z,99690.38
2023-05-04T10:44:32.693Z,99701.88
2023-05-04T10:47:01.653Z,99699.69
2023-05-04T10:49:29.161Z,99690.72
2023-05-04T10:52:06.359Z,99697.28
2023-05-04T10:54:34.513Z,99698.88
2023-05-04T10:57:12.276Z,99697.88
2023-05-04T10:59:40.828Z,99697.50
2023-05-04T11:02:08.784Z,99705.94
2023-05-04T11:04:36.162Z,99710.41
2023-05-04T11:07:08.370Z,99704.44
2023-05-04T11:09:37.420Z,99702.84
2023-05-04T11:12:05.750Z,99702.88
2023-05-04T11:14:37.327Z,99689.34
2023-05-04T11:19:50.674Z,99692.97
2023-05-04T11:22:18.492Z,99696.78
2023-05-04T11:24:46.556Z,99691.91
2023-05-04T11:27:29.590Z,99684.06
2023-05-04T11:30:01.163Z,99690.25
2023-05-04T11:32:38.951Z,99688.22
2023-05-04T11:35:18.756Z,99683.53
2023-05-04T11:37:46.792Z,99679.84
2023-05-04T11:40:16.424Z,99680.72
2023-05-04T11:42:43.830Z,99687.44
2023-05-04T11:45:14.178Z,99683.06
2023-05-04T11:47:41.350Z,99677.88
2023-05-04T11:50:10.760Z,99679.56
2023-05-04T11:52:40.471Z,99687.31
2023-05-04T11:55:12.124Z,99674.78
2023-05-04T11:57:39.488Z,99677.69
2023-05-04T12:00:07.994Z,99687.94
2023-05-04T12:02:35.653Z,99691.47
2023-05-04T12:05:03.275Z,99695.44
2023-05-04T12:07:35.342Z,99692.72
2023-05-04T12:10:02.848Z,99684.59
2023-05-04T12:12:35.444Z,99689.16
2023-05-04T12:15:03.132Z,99690.03
2023-05-04T12:17:41.105Z,99687.50
2023-05-04T12:20:08.671Z,99700.03
2023-05-04T12:22:36.000Z,99708.00
2023-05-04T12:25:03.651Z,99701.13
2023-05-04T12:27:31.428Z,99701.75
2023-05-04T12:29:58.532Z,99700.50
2023-05-04T12:32:26.062Z,99711.34
2023-05-04T12:34:53.042Z,99715.31
2023-05-04T12:37:20.139Z,99719.72
2023-05-04T12:39:47.249Z,99715.34
2023-05-04T12:42:14.847Z,99711.59
2023-05-04T12:44:42.043Z,99712.03
2023-05-04T12:47:09.664Z,99720.16
2023-05-04T12:49:36.824Z,99714.97
2023-05-04T12:52:04.075Z,99721.44
2023-05-04T12:54:31.089Z,99714.53
2023-05-04T12:56:58.464Z,99719.34
2023-05-04T12:59:26.211Z,99715.16
2023-05-04T13:01:53.766Z,99720.13
2023-05-04T13:04:21.274Z,99719.69
2023-05-04T13:06:48.707Z,99716.13
2023-05-04T13:09:16.256Z,99710.47
2023-05-04T13:11:43.431Z,99722.31
2023-05-04T13:14:11.379Z,99719.63
2023-05-04T13:16:38.573Z,99721.66
2023-05-04T13:19:06.185Z,99721.59
2023-05-04T13:21:33.298Z,99726.38
2023-05-04T13:24:01.777Z,99727.75
2023-05-04T13:26:28.840Z,99735.16
2023-05-04T13:28:55.887Z,99739.66
2023-05-04T13:31:23.308Z,99738.31
2023-05-04T13:33:50.723Z,99738.25
2023-05-04T13:36:18.476Z,99740.25
2023-05-04T13:38:45.877Z,99738.56
2023-05-04T13:41:13.358Z,99749.84
2023-05-04T13:43:40.488Z,99747.03
2023-05-04T13:46:07.791Z,99749.41
2023-05-04T13:48:35.448Z,99745.38
2023-05-04T13:51:03.750Z,99756.91
2023-05-04T13:53:31.667Z,99749.81
2023-05-04T13:55:59.147Z,99751.56
2023-05-04T13:58:26.461Z,99751.91
2023-05-04T14:00:55.895Z,99757.09
2023-05-04T14:03:23.172Z,99766.41
2023-05-04T14:05:51.429Z,99771.53
2023-05-04T14:08:18.761Z,99768.56
2023-05-04T14:10:46.452Z,99759.56
2023-05-04T14:13:15.121Z,99767.38
2023-05-04T14:15:42.275Z,99768.78
2023-05-04T14:18:09.891Z,99773.06
2023-05-04T14:20:37.274Z,99777.53
2023-05-04T14:23:04.913Z,99780.59
2023-05-04T14:25:31.965Z,99768.44
2023-05-04T14:27:59.086Z,99781.63
2023-05-04T14:30:27.604Z,99778.66
2023-05-04T14:32:55.790Z,99778.38
2023-05-04T14:35:23.116Z,99782.91
2023-05-04T14:37:50.508Z,99782.66
2023-05-04T14:40:17.573Z,99773.47
2023-05-04T14:42:44.943Z,99783.94
2023-05-04T14:45:12.409Z,99782.81
2023-05-04T14:47:39.553Z,99789.78
2023-05-04T14:50:07.990Z,99785.75
2023-05-04T14:52:35.231Z,99790.88
2023-05-04T14:55:04.118Z,99789.75
2023-05-04T14:57:31.281Z,99790.63
2023-05-04T14:59:58.983Z,99788.28
2023-05-04T15:02:26.622Z,99788.84
2023-05-04T15:04:54.080Z,99800.78
2023-05-04T15:07:21.801Z,99796.16
2023-05-04T15:09:49.140Z,99801.25
2023-05-04T15:12:17.489Z,99798.22
2023-05-04T15:14:46.126Z,99794.41
2023-05-04T15:17:13.447Z,99795.97
2023-05-04T15:19:40.839Z,99796.50
2023-05-04T15:22:08.286Z,99800.75
2023-05-04T15:24:35.530Z,99798.78
2023-05-04T15:27:03.744Z,99808.19
2023-05-04T15:29:31.153Z,99803.53
2023-05-04T15:31:58.323Z,99816.88
2023-05-04T15:34:25.422Z,99822.75
2023-05-04T15:36:52.882Z,99814.22
2023-05-04T15:39:19.955Z,99816.25
2023-05-04T15:41:47.242Z,99810.03
2023-05-04T15:44:15.026Z,99814.09
2023-05-04T15:46:42.223Z,99817.28
2023-05-04T15:49:10.084Z,99814.97
2023-05-04T15:51:37.343Z,99818.84
2023-05-04T15:54:04.549Z,99818.84
2023-05-04T15:56:31.844Z,99816.63
2023-05-04T15:58:59.027Z,99820.16
2023-05-04T16:01:26.446Z,99811.78
2023-05-04T16:03:55.073Z,99814.84
2023-05-04T16:06:23.631Z,99814.34
2023-05-04T16:08:51.418Z,99808.28
2023-05-04T16:11:18.741Z,99817.38
2023-05-04T16:13:46.435Z,99813.72
2023-05-04T16:16:13.493Z,99812.88
2023-05-04T16:18:40.903Z,99815.09
2023-05-04T16:21:08.655Z,99824.22
2023-05-04T16:23:36.143Z,99809.94
2023-05-04T16:26:03.295Z,99813.34
2023-05-04T16:28:30.273Z,99817.34
2023-05-04T16:30:57.763Z,99810.16
2023-05-04T16:33:26.275Z,99816.91
2023-05-04T16:35:53.601Z,99816.72
2023-05-04T16:38:21.127Z,99819.94
2023-05-04T16:40:48.758Z,99814.41
2023-05-04T16:43:16.202Z,99806.00
2023-05-04T16:45:43.857Z,99815.41
2023-05-04T16:48:10.911Z,99818.28
2023-05-04T16:50:38.363Z,99814.09
2023-05-04T16:53:05.732Z,99829.50
2023-05-04T16:55:32.688Z,99815.56
2023-05-04T16:58:00.375Z,99818.09
2023-05-04T17:00:28.023Z,99821.47
2023-05-04T17:02:55.616Z,99815.25
2023-05-04T17:05:22.807Z,99820.59
2023-05-04T17:07:50.706Z,99823.94
2023-05-04T17:10:18.508Z,99822.59
2023-05-04T17:12:46.129Z,99819.72
2023-05-04T17:15:13.288Z,99819.38
2023-05-04T17:17:41.258Z,99820.03
2023-05-04T17:20:14.050Z,99824.03
2023-05-04T17:22:41.731Z,99834.25
2023-05-04T17:25:12.205Z,99827.03
2023-05-04T17:27:40.204Z,99829.34
2023-05-04T17:30:08.009Z,99834.03
2023-05-04T17:32:37.264Z,99832.53
2023-05-04T17:35:15.965Z,99827.66
2023-05-04T17:37:51.325Z,99834.88
2023-05-04T17:40:18.488Z,99833.34
2023-05-04T17:42:47.331Z,99828.47
2023-05-04T17:45:14.890Z,99839.50
2023-05-04T17:47:43.619Z,99841.34
2023-05-04T17:50:11.306Z,99840.63
2023-05-04T17:52:38.363Z,99841.94
2023-05-04T17:55:06.261Z,99844.13
2023-05-04T17:57:33.971Z,99846.13
2023-05-04T18:00:00.971Z,99850.97
2023-05-04T18:02:30.702Z,99850.59
2023-05-04T18:04:58.015Z,99846.56
2023-05-04T18:07:25.872Z,99847.88
2023-05-04T18:09:53.302Z,99854.56
2023-05-04T18:12:20.340Z,99846.97
2023-05-04T18:14:47.714Z,99855.19
2023-05-04T18:17:14.926Z,99853.81
2023-05-04T18:19:41.941Z,99858.94
2023-05-04T18:22:09.247Z,99862.09
2023-05-04T18:24:36.782Z,99862.41
2023-05-04T18:27:04.447Z,99856.38
2023-05-04T18:29:31.822Z,99854.72
2023-05-04T18:32:00.983Z,99851.66
2023-05-04T18:34:27.987Z,99849.13
2023-05-04T18:36:55.207Z,99852.97
2023-05-04T18:39:22.789Z,99852.75
2023-05-04T18:41:50.093Z,99856.75
2023-05-04T18:44:17.175Z,99856.88
2023-05-04T18:46:44.718Z,99854.06
2023-05-04T18:49:12.012Z,99853.69
2023-05-04T18:51:41.325Z,99848.50
2023-05-04T18:54:08.780Z,99857.00
2023-05-04T18:56:36.290Z,99859.13
2023-05-04T18:59:05.704Z,99853.56
2023-05-04T19:01:33.207Z,99856.69
2023-05-04T19:04:00.317Z,99856.16
2023-05-04T19:06:27.529Z,99862.78
2023-05-04T19:08:54.593Z,99853.41
2023-05-04T19:11:21.653Z,99852.88
2023-05-04T19:13:49.922Z,99851.50
2023-05-04T19:16:17.830Z,99852.66
2023-05-04T19:18:45.797Z,99844.94
2023-05-04T19:21:12.937Z,99847.75
2023-05-04T19:23:40.287Z,99853.78
2023-05-04T19:26:07.561Z,99851.13
2023-05-04T19:28:35.233Z,99856.78
2023-05-04T19:31:02.553Z,99856.09
2023-05-04T19:33:40.418Z,99850.22
2023-05-04T19:36:15.725Z,99848.00
2023-05-04T19:38:43.013Z,99859.66
2023-05-04T19:41:10.050Z,99845.06
2023-05-04T19:43:38.522Z,99860.72
2023-05-04T19:46:05.879Z,99861.03
2023-05-04T19:48:33.285Z,99862.88
2023-05-04T19:51:00.336Z,99860.31
2023-05-04T19:53:27.610Z,99860.47
2023-05-04T19:55:55.318Z,99865.97
2023-05-04T19:58:25.621Z,99865.28
2023-05-04T20:00:53.532Z,99868.09
2023-05-04T20:03:20.898Z,99865.59
2023-05-04T20:05:48.768Z,99864.91
2023-05-04T20:08:16.227Z,99855.50
2023-05-04T20:10:43.537Z,99855.50
2023-05-04T20:13:10.672Z,99861.28
2023-05-04T20:15:37.868Z,99863.13
2023-05-04T20:18:06.094Z,99865.09
2023-05-04T20:20:33.613Z,99865.25
2023-05-04T20:23:00.756Z,99859.91
2023-05-04T20:25:28.530Z,99850.53
2023-05-04T20:27:55.835Z,99860.06
2023-05-04T20:30:23.400Z,99858.53
2023-05-04T20:32:50.783Z,99856.84
2023-05-04T20:35:18.610Z,99865.00
2023-05-04T20:37:46.286Z,99861.78
2023-05-04T20:40:16.630Z,99863.38
2023-05-04T20:42:43.810Z,99870.00
2023-05-04T20:45:11.056Z,99869.03
2023-05-04T20:47:38.806Z,99866.66
2023-05-04T20:50:07.720Z,99861.06
2023-05-04T20:52:38.071Z,99859.84
2023-05-04T20:55:07.151Z,99859.44
2023-05-04T20:57:34.178Z,99862.56
2023-05-04T21:00:01.608Z,99853.28
2023-05-04T21:02:28.805Z,99850.91
2023-05-04T21:04:56.482Z,99858.53
2023-05-04T21:07:23.534Z,99863.00
2023-05-04T21:09:56.182Z,99859.50
2023-05-04T21:12:23.551Z,99854.59
2023-05-04T21:14:50.685Z,99855.31
2023-05-04T21:17:18.442Z,99857.84
2023-05-04T21:19:45.771Z,99853.22
2023-05-04T21:22:17.018Z,99859.25
2023-05-04T21:24:46.282Z,99857.84
2023-05-04T21:27:13.754Z,99852.66
2023-05-04T21:29:40.920Z,99851.41
2023-05-04T21:32:08.635Z,99859.72
2023-05-04T21:34:36.013Z,99855.75
2023-05-04T21:37:03.411Z,99863.75
2023-05-04T21:39:31.593Z,99867.41
2023-05-04T21:41:58.924Z,99874.72
2023-05-04T21:44:25.975Z,99871.66
2023-05-04T21:46:53.172Z,99872.91
2023-05-04T21:49:20.682Z,99878.34
2023-05-04T21:51:47.972Z,99876.81
2023-05-04T21:54:15.624Z,99871.09
2023-05-04T21:56:42.732Z,99875.72
2023-05-04T21:59:10.105Z,99878.38
2023-05-04T22:01:37.576Z,99880.22
2023-05-04T22:04:07.597Z,99876.56
2023-05-04T22:06:35.948Z,99877.09
2023-05-04T22:09:03.865Z,99874.44
2023-05-04T22:11:31.066Z,99880.63
2023-05-04T22:13:58.978Z,99883.00
2023-05-04T22:16:26.393Z,99880.19
2023-05-04T22:18:53.736Z,99883.44
2023-05-04T22:21:21.030Z,99879.94
2023-05-04T22:23:48.689Z,99891.00
2023-05-04T22:26:16.177Z,99883.41
2023-05-04T22:28:43.157Z,99888.19
2023-05-04T22:31:10.355Z,99893.78
2023-05-04T22:33:37.386Z,99901.19
2023-05-04T22:36:04.980Z,99898.97
2023-05-04T22:38:32.086Z,99901.50
2023-05-04T22:40:59.204Z,99892.91
2023-05-04T22:43:26.216Z,99893.72
2023-05-04T22:45:53.910Z,99903.41
2023-05-04T22:48:21.398Z,99912.72
2023-05-04T22:50:48.607Z,99912.16
2023-05-04T22:53:16.054Z,99901.50
2023-05-04T22:55:43.118Z,99905.63
2023-05-04T22:58:11.012Z,99904.84
2023-05-04T23:00:38.355Z,99903.72
2023-05-04T23:03:06.127Z,99907.00
2023-05-04T23:05:33.293Z,99913.28
2023-05-04T23:08:00.776Z,99907.25
2023-05-04T23:10:27.933Z,99908.13
2023-05-04T23:12:55.872Z,99898.22
2023-05-04T23:15:24.656Z,99899.63
2023-05-04T23:17:51.824Z,99906.75
2023-05-04T23:20:19.570Z,99913.22
2023-05-04T23:22:46.659Z,99909.28
2023-05-04T23:25:13.872Z,99914.53
2023-05-04T23:27:41.074Z,99905.88
2023-05-04T23:30:09.613Z,99909.00
2023-05-04T23:32:36.863Z,99911.31
2023-05-04T23:35:04.214Z,99904.94
2023-05-04T23:37:32.019Z,99911.56
2023-05-04T23:39:59.923Z,99902.13
2023-05-04T23:42:27.135Z,99899.75
2023-05-04T23:44:55.348Z,99908.63
2023-05-04T23:47:22.982Z,99913.91
2023-05-04T23:49:50.457Z,99913.16
2023-05-04T23:52:17.759Z,99914.94
2023-05-04T23:54:45.075Z,99905.13
2023-05-04T23:57:12.331Z,99905.41
2023-05-04T23:59:40.452Z,99901.63
